sensor_id;sensor_type;location;lat;lon;timestamp;P1;durP1;ratioP1;P2;durP2;ratioP2
38427;SDS011;24211;49.980;19.776;2022-10-16T00:17:43;25.23;;;13.20;;
38427;SDS011;24211;49.980;19.776;2022-10-16T00:20:10;25.38;;;13.10;;
38427;SDS011;24211;49.980;19.776;2022-10-16T00:22:38;24.80;;;12.73;;
38427;SDS011;24211;49.980;19.776;2022-10-16T00:25:06;25.17;;;12.15;;
38427;SDS011;24211;49.980;19.776;2022-10-16T00:27:34;25.60;;;13.43;;
38427;SDS011;24211;49.980;19.776;2022-10-16T00:30:17;24.25;;;13.27;;
38427;SDS011;24211;49.980;19.776;2022-10-16T00:32:45;22.00;;;12.77;;
38427;SDS011;24211;49.980;19.776;2022-10-16T00:35:16;24.17;;;13.35;;
38427;SDS011;24211;49.980;19.776;2022-10-16T00:37:44;24.30;;;12.93;;
38427;SDS011;24211;49.980;19.776;2022-10-16T00:40:14;24.13;;;12.82;;
38427;SDS011;24211;49.980;19.776;2022-10-16T00:42:42;24.73;;;12.93;;
38427;SDS011;24211;49.980;19.776;2022-10-16T00:45:10;24.73;;;12.45;;
38427;SDS011;24211;49.980;19.776;2022-10-16T00:47:47;24.08;;;12.75;;
38427;SDS011;24211;49.980;19.776;2022-10-16T00:55:26;22.42;;;12.23;;
38427;SDS011;24211;49.980;19.776;2022-10-16T01:02:12;24.95;;;12.70;;
38427;SDS011;24211;49.980;19.776;2022-10-16T01:05:10;21.38;;;11.90;;
38427;SDS011;24211;49.980;19.776;2022-10-16T01:52:33;20.80;;;11.18;;
38427;SDS011;24211;49.980;19.776;2022-10-16T01:55:07;19.80;;;10.68;;
38427;SDS011;24211;49.980;19.776;2022-10-16T01:57:40;20.70;;;11.45;;
38427;SDS011;24211;49.980;19.776;2022-10-16T02:00:13;21.88;;;12.07;;
38427;SDS011;24211;49.980;19.776;2022-10-16T02:02:44;21.63;;;11.68;;
38427;SDS011;24211;49.980;19.776;2022-10-16T02:08:24;20.75;;;11.25;;
38427;SDS011;24211;49.980;19.776;2022-10-16T02:10:58;21.17;;;10.90;;
38427;SDS011;24211;49.980;19.776;2022-10-16T02:16:32;20.65;;;10.65;;
38427;SDS011;24211;49.980;19.776;2022-10-16T02:19:05;21.92;;;11.70;;
38427;SDS011;24211;49.980;19.776;2022-10-16T03:01:48;20.15;;;11.07;;
38427;SDS011;24211;49.980;19.776;2022-10-16T03:04:27;18.67;;;10.35;;
38427;SDS011;24211;49.980;19.776;2022-10-16T03:06:56;19.42;;;10.77;;
38427;SDS011;24211;49.980;19.776;2022-10-16T03:09:31;20.15;;;10.60;;
38427;SDS011;24211;49.980;19.776;2022-10-16T03:12:03;17.25;;;10.07;;
38427;SDS011;24211;49.980;19.776;2022-10-16T03:15:34;17.58;;;9.82;;
38427;SDS011;24211;49.980;19.776;2022-10-16T03:18:02;17.30;;;9.93;;
38427;SDS011;24211;49.980;19.776;2022-10-16T03:20:30;19.63;;;9.63;;
38427;SDS011;24211;49.980;19.776;2022-10-16T03:23:01;18.25;;;10.02;;
38427;SDS011;24211;49.980;19.776;2022-10-16T03:25:44;18.77;;;9.75;;
38427;SDS011;24211;49.980;19.776;2022-10-16T04:08:48;24.20;;;11.77;;
38427;SDS011;24211;49.980;19.776;2022-10-16T04:18:26;22.77;;;10.93;;
38427;SDS011;24211;49.980;19.776;2022-10-16T05:42:21;16.40;;;9.10;;
38427;SDS011;24211;49.980;19.776;2022-10-16T05:44:54;16.27;;;9.68;;
38427;SDS011;24211;49.980;19.776;2022-10-16T05:47:21;14.70;;;8.52;;
38427;SDS011;24211;49.980;19.776;2022-10-16T05:49:48;19.15;;;8.63;;
38427;SDS011;24211;49.980;19.776;2022-10-16T05:52:24;16.85;;;8.65;;
38427;SDS011;24211;49.980;19.776;2022-10-16T05:56:45;17.70;;;9.00;;
38427;SDS011;24211;49.980;19.776;2022-10-16T06:35:01;14.98;;;8.32;;
38427;SDS011;24211;49.980;19.776;2022-10-16T06:40:45;15.27;;;8.70;;
38427;SDS011;24211;49.980;19.776;2022-10-16T06:43:13;15.48;;;8.70;;
38427;SDS011;24211;49.980;19.776;2022-10-16T06:45:43;15.93;;;9.00;;
38427;SDS011;24211;49.980;19.776;2022-10-16T06:48:37;16.17;;;8.65;;
38427;SDS011;24211;49.980;19.776;2022-10-16T07:25:45;15.50;;;8.82;;
38427;SDS011;24211;49.980;19.776;2022-10-16T07:28:20;17.92;;;10.43;;
38427;SDS011;24211;49.980;19.776;2022-10-16T07:30:48;21.35;;;10.73;;
38427;SDS011;24211;49.980;19.776;2022-10-16T07:33:17;18.05;;;10.18;;
38427;SDS011;24211;49.980;19.776;2022-10-16T07:35:48;19.70;;;10.82;;
38427;SDS011;24211;49.980;19.776;2022-10-16T07:38:18;18.90;;;11.25;;
38427;SDS011;24211;49.980;19.776;2022-10-16T07:41:00;19.90;;;11.02;;
38427;SDS011;24211;49.980;19.776;2022-10-16T07:43:33;19.15;;;11.43;;
38427;SDS011;24211;49.980;19.776;2022-10-16T07:48:54;21.50;;;11.77;;
38427;SDS011;24211;49.980;19.776;2022-10-16T07:51:23;19.88;;;11.93;;
38427;SDS011;24211;49.980;19.776;2022-10-16T07:53:52;21.13;;;11.98;;
38427;SDS011;24211;49.980;19.776;2022-10-16T07:56:22;20.67;;;11.98;;
38427;SDS011;24211;49.980;19.776;2022-10-16T07:58:50;19.77;;;10.88;;
38427;SDS011;24211;49.980;19.776;2022-10-16T08:01:19;18.23;;;10.57;;
38427;SDS011;24211;49.980;19.776;2022-10-16T08:03:48;16.85;;;9.32;;
38427;SDS011;24211;49.980;19.776;2022-10-16T08:06:21;20.35;;;11.98;;
38427;SDS011;24211;49.980;19.776;2022-10-16T08:08:55;19.23;;;10.27;;
38427;SDS011;24211;49.980;19.776;2022-10-16T08:11:23;18.25;;;9.80;;
38427;SDS011;24211;49.980;19.776;2022-10-16T08:13:50;14.85;;;9.00;;
38427;SDS011;24211;49.980;19.776;2022-10-16T08:16:19;15.02;;;8.82;;
38427;SDS011;24211;49.980;19.776;2022-10-16T08:18:46;13.25;;;8.38;;
38427;SDS011;24211;49.980;19.776;2022-10-16T08:21:15;13.80;;;8.02;;
38427;SDS011;24211;49.980;19.776;2022-10-16T08:23:47;15.60;;;8.48;;
38427;SDS011;24211;49.980;19.776;2022-10-16T08:26:22;13.75;;;7.93;;
38427;SDS011;24211;49.980;19.776;2022-10-16T08:28:50;12.73;;;7.70;;
38427;SDS011;24211;49.980;19.776;2022-10-16T08:31:18;12.75;;;7.50;;
38427;SDS011;24211;49.980;19.776;2022-10-16T08:33:46;12.98;;;7.68;;
38427;SDS011;24211;49.980;19.776;2022-10-16T08:44:31;11.13;;;7.03;;
38427;SDS011;24211;49.980;19.776;2022-10-16T08:47:18;10.63;;;6.40;;
38427;SDS011;24211;49.980;19.776;2022-10-16T08:50:27;10.95;;;6.55;;
38427;SDS011;24211;49.980;19.776;2022-10-16T08:52:58;11.18;;;6.25;;
38427;SDS011;24211;49.980;19.776;2022-10-16T09:00:40;10.05;;;5.82;;
38427;SDS011;24211;49.980;19.776;2022-10-16T09:03:17;10.18;;;5.70;;
38427;SDS011;24211;49.980;19.776;2022-10-16T09:23:47;9.43;;;5.03;;
38427;SDS011;24211;49.980;19.776;2022-10-16T09:26:15;7.97;;;4.70;;
38427;SDS011;24211;49.980;19.776;2022-10-16T09:28:48;7.90;;;4.80;;
38427;SDS011;24211;49.980;19.776;2022-10-16T09:31:17;8.68;;;5.05;;
38427;SDS011;24211;49.980;19.776;2022-10-16T09:33:48;8.63;;;5.50;;
38427;SDS011;24211;49.980;19.776;2022-10-16T09:36:24;11.25;;;5.75;;
38427;SDS011;24211;49.980;19.776;2022-10-16T09:39:04;8.98;;;5.43;;
38427;SDS011;24211;49.980;19.776;2022-10-16T09:41:35;15.63;;;7.55;;
38427;SDS011;24211;49.980;19.776;2022-10-16T09:44:23;9.68;;;5.50;;
38427;SDS011;24211;49.980;19.776;2022-10-16T09:47:03;12.15;;;6.28;;
38427;SDS011;24211;49.980;19.776;2022-10-16T09:49:51;12.07;;;5.82;;
38427;SDS011;24211;49.980;19.776;2022-10-16T09:52:24;10.30;;;5.90;;
38427;SDS011;24211;49.980;19.776;2022-10-16T09:54:56;10.43;;;5.85;;
38427;SDS011;24211;49.980;19.776;2022-10-16T09:57:27;9.32;;;5.55;;
38427;SDS011;24211;49.980;19.776;2022-10-16T09:59:57;9.18;;;5.43;;
38427;SDS011;24211;49.980;19.776;2022-10-16T10:02:35;10.52;;;5.40;;
38427;SDS011;24211;49.980;19.776;2022-10-16T10:05:05;8.80;;;5.43;;
38427;SDS011;24211;49.980;19.776;2022-10-16T10:07:52;8.55;;;5.22;;
38427;SDS011;24211;49.980;19.776;2022-10-16T10:10:29;9.50;;;5.45;;
38427;SDS011;24211;49.980;19.776;2022-10-16T10:13:01;7.60;;;4.72;;
38427;SDS011;24211;49.980;19.776;2022-10-16T10:15:32;9.23;;;5.28;;
38427;SDS011;24211;49.980;19.776;2022-10-16T10:18:21;8.23;;;4.68;;
38427;SDS011;24211;49.980;19.776;2022-10-16T10:20:57;9.82;;;5.30;;
38427;SDS011;24211;49.980;19.776;2022-10-16T10:23:34;7.53;;;4.53;;
38427;SDS011;24211;49.980;19.776;2022-10-16T10:26:06;8.95;;;4.43;;
38427;SDS011;24211;49.980;19.776;2022-10-16T10:31:49;7.95;;;4.57;;
38427;SDS011;24211;49.980;19.776;2022-10-16T10:39:59;6.80;;;4.10;;
38427;SDS011;24211;49.980;19.776;2022-10-16T10:45:44;5.85;;;3.70;;
38427;SDS011;24211;49.980;19.776;2022-10-16T10:48:21;7.10;;;4.05;;
38427;SDS011;24211;49.980;19.776;2022-10-16T10:51:18;7.13;;;4.30;;
38427;SDS011;24211;49.980;19.776;2022-10-16T10:56:57;7.07;;;3.80;;
38427;SDS011;24211;49.980;19.776;2022-10-16T10:59:32;6.20;;;3.50;;
38427;SDS011;24211;49.980;19.776;2022-10-16T11:05:29;6.13;;;3.60;;
38427;SDS011;24211;49.980;19.776;2022-10-16T11:08:09;6.57;;;3.70;;
38427;SDS011;24211;49.980;19.776;2022-10-16T11:10:46;5.50;;;3.30;;
38427;SDS011;24211;49.980;19.776;2022-10-16T11:13:35;6.25;;;3.50;;
38427;SDS011;24211;49.980;19.776;2022-10-16T11:16:13;6.55;;;3.22;;
38427;SDS011;24211;49.980;19.776;2022-10-16T11:18:58;5.97;;;3.40;;
38427;SDS011;24211;49.980;19.776;2022-10-16T11:21:39;6.10;;;3.83;;
38427;SDS011;24211;49.980;19.776;2022-10-16T11:24:22;6.85;;;3.53;;
38427;SDS011;24211;49.980;19.776;2022-10-16T11:27:17;6.60;;;3.40;;
38427;SDS011;24211;49.980;19.776;2022-10-16T11:29:56;6.88;;;3.60;;
38427;SDS011;24211;49.980;19.776;2022-10-16T11:32:32;5.22;;;3.10;;
38427;SDS011;24211;49.980;19.776;2022-10-16T11:35:23;5.47;;;3.03;;
38427;SDS011;24211;49.980;19.776;2022-10-16T11:38:09;4.50;;;2.83;;
38427;SDS011;24211;49.980;19.776;2022-10-16T11:40:53;5.93;;;3.40;;
38427;SDS011;24211;49.980;19.776;2022-10-16T11:46:10;7.40;;;3.10;;
38427;SDS011;24211;49.980;19.776;2022-10-16T11:48:48;5.28;;;3.03;;
38427;SDS011;24211;49.980;19.776;2022-10-16T11:51:43;5.93;;;3.10;;
38427;SDS011;24211;49.980;19.776;2022-10-16T11:57:13;5.13;;;3.08;;
38427;SDS011;24211;49.980;19.776;2022-10-16T12:03:01;6.60;;;3.30;;
38427;SDS011;24211;49.980;19.776;2022-10-16T12:08:38;5.60;;;3.08;;
38427;SDS011;24211;49.980;19.776;2022-10-16T12:11:07;5.47;;;3.15;;
38427;SDS011;24211;49.980;19.776;2022-10-16T12:17:23;5.72;;;3.05;;
38427;SDS011;24211;49.980;19.776;2022-10-16T12:25:33;5.68;;;3.28;;
38427;SDS011;24211;49.980;19.776;2022-10-16T12:31:00;5.70;;;3.10;;
38427;SDS011;24211;49.980;19.776;2022-10-16T12:33:33;5.95;;;2.95;;
38427;SDS011;24211;49.980;19.776;2022-10-16T12:36:41;5.03;;;3.15;;
38427;SDS011;24211;49.980;19.776;2022-10-16T12:39:16;4.78;;;2.67;;
38427;SDS011;24211;49.980;19.776;2022-10-16T12:42:03;5.10;;;2.87;;
38427;SDS011;24211;49.980;19.776;2022-10-16T12:44:46;5.55;;;2.83;;
38427;SDS011;24211;49.980;19.776;2022-10-16T12:50:00;4.93;;;2.80;;
38427;SDS011;24211;49.980;19.776;2022-10-16T12:52:38;4.55;;;2.63;;
38427;SDS011;24211;49.980;19.776;2022-10-16T12:55:12;4.68;;;2.65;;
38427;SDS011;24211;49.980;19.776;2022-10-16T13:03:35;5.63;;;2.67;;
38427;SDS011;24211;49.980;19.776;2022-10-16T13:06:54;5.00;;;2.60;;
38427;SDS011;24211;49.980;19.776;2022-10-16T13:12:55;4.45;;;2.70;;
38427;SDS011;24211;49.980;19.776;2022-10-16T13:21:45;4.28;;;2.58;;
38427;SDS011;24211;49.980;19.776;2022-10-16T13:27:51;5.82;;;2.47;;
38427;SDS011;24211;49.980;19.776;2022-10-16T13:30:34;6.03;;;3.00;;
38427;SDS011;24211;49.980;19.776;2022-10-16T13:36:19;4.25;;;2.40;;
38427;SDS011;24211;49.980;19.776;2022-10-16T13:44:42;5.47;;;2.28;;
38427;SDS011;24211;49.980;19.776;2022-10-16T13:47:24;4.95;;;2.50;;
38427;SDS011;24211;49.980;19.776;2022-10-16T13:50:15;4.65;;;2.28;;
38427;SDS011;24211;49.980;19.776;2022-10-16T13:52:45;5.03;;;2.35;;
38427;SDS011;24211;49.980;19.776;2022-10-16T13:55:13;5.28;;;2.47;;
38427;SDS011;24211;49.980;19.776;2022-10-16T13:57:43;4.65;;;2.30;;
38427;SDS011;24211;49.980;19.776;2022-10-16T14:00:17;4.57;;;2.30;;
38427;SDS011;24211;49.980;19.776;2022-10-16T14:02:49;4.80;;;2.35;;
38427;SDS011;24211;49.980;19.776;2022-10-16T14:05:29;3.85;;;2.20;;
38427;SDS011;24211;49.980;19.776;2022-10-16T14:07:57;4.63;;;2.50;;
38427;SDS011;24211;49.980;19.776;2022-10-16T14:10:27;3.72;;;2.10;;
38427;SDS011;24211;49.980;19.776;2022-10-16T14:13:00;3.85;;;2.30;;
38427;SDS011;24211;49.980;19.776;2022-10-16T14:18:01;4.05;;;2.17;;
38427;SDS011;24211;49.980;19.776;2022-10-16T14:20:31;3.95;;;2.10;;
38427;SDS011;24211;49.980;19.776;2022-10-16T14:23:04;4.28;;;2.25;;
38427;SDS011;24211;49.980;19.776;2022-10-16T14:26:11;3.92;;;2.20;;
38427;SDS011;24211;49.980;19.776;2022-10-16T14:28:41;4.65;;;2.10;;
38427;SDS011;24211;49.980;19.776;2022-10-16T14:31:24;4.07;;;2.22;;
38427;SDS011;24211;49.980;19.776;2022-10-16T14:33:56;4.25;;;2.33;;
38427;SDS011;24211;49.980;19.776;2022-10-16T14:36:25;4.60;;;2.30;;
38427;SDS011;24211;49.980;19.776;2022-10-16T14:41:45;3.97;;;2.17;;
38427;SDS011;24211;49.980;19.776;2022-10-16T14:44:19;4.60;;;2.15;;
38427;SDS011;24211;49.980;19.776;2022-10-16T14:46:56;4.30;;;2.60;;
38427;SDS011;24211;49.980;19.776;2022-10-16T14:49:26;4.88;;;2.45;;
38427;SDS011;24211;49.980;19.776;2022-10-16T14:51:54;7.07;;;2.30;;
38427;SDS011;24211;49.980;19.776;2022-10-16T14:54:25;4.25;;;2.55;;
38427;SDS011;24211;49.980;19.776;2022-10-16T14:56:56;5.10;;;2.33;;
38427;SDS011;24211;49.980;19.776;2022-10-16T14:59:29;4.75;;;2.47;;
38427;SDS011;24211;49.980;19.776;2022-10-16T15:02:16;6.20;;;2.80;;
38427;SDS011;24211;49.980;19.776;2022-10-16T15:04:50;6.63;;;3.03;;
38427;SDS011;24211;49.980;19.776;2022-10-16T15:07:18;5.95;;;3.08;;
38427;SDS011;24211;49.980;19.776;2022-10-16T15:09:45;5.63;;;3.17;;
38427;SDS011;24211;49.980;19.776;2022-10-16T15:12:18;5.45;;;3.03;;
38427;SDS011;24211;49.980;19.776;2022-10-16T15:14:45;7.03;;;3.28;;
38427;SDS011;24211;49.980;19.776;2022-10-16T15:17:13;6.30;;;2.97;;
38427;SDS011;24211;49.980;19.776;2022-10-16T15:19:45;5.00;;;2.85;;
38427;SDS011;24211;49.980;19.776;2022-10-16T15:22:13;6.47;;;2.90;;
38427;SDS011;24211;49.980;19.776;2022-10-16T15:24:40;5.40;;;3.10;;
38427;SDS011;24211;49.980;19.776;2022-10-16T15:27:07;5.30;;;3.10;;
38427;SDS011;24211;49.980;19.776;2022-10-16T15:29:34;6.57;;;3.50;;
38427;SDS011;24211;49.980;19.776;2022-10-16T15:32:02;5.93;;;3.33;;
38427;SDS011;24211;49.980;19.776;2022-10-16T15:34:29;5.10;;;3.00;;
38427;SDS011;24211;49.980;19.776;2022-10-16T15:36:57;6.30;;;3.20;;
38427;SDS011;24211;49.980;19.776;2022-10-16T15:39:27;5.78;;;3.00;;
38427;SDS011;24211;49.980;19.776;2022-10-16T15:42:07;5.65;;;3.22;;
38427;SDS011;24211;49.980;19.776;2022-10-16T15:44:34;5.97;;;3.20;;
38427;SDS011;24211;49.980;19.776;2022-10-16T15:47:01;6.18;;;2.80;;
38427;SDS011;24211;49.980;19.776;2022-10-16T15:49:49;5.15;;;3.00;;
38427;SDS011;24211;49.980;19.776;2022-10-16T15:52:24;5.35;;;3.28;;
38427;SDS011;24211;49.980;19.776;2022-10-16T15:54:57;5.50;;;2.97;;
38427;SDS011;24211;49.980;19.776;2022-10-16T15:57:27;5.40;;;3.05;;
38427;SDS011;24211;49.980;19.776;2022-10-16T15:59:55;6.40;;;3.33;;
38427;SDS011;24211;49.980;19.776;2022-10-16T16:02:23;6.07;;;2.90;;
38427;SDS011;24211;49.980;19.776;2022-10-16T16:10:23;6.25;;;3.10;;
38427;SDS011;24211;49.980;19.776;2022-10-16T16:18:33;5.88;;;3.30;;
38427;SDS011;24211;49.980;19.776;2022-10-16T16:22:23;6.20;;;3.08;;
38427;SDS011;24211;49.980;19.776;2022-10-16T16:27:03;5.95;;;3.38;;
38427;SDS011;24211;49.980;19.776;2022-10-16T16:29:32;6.85;;;3.20;;
38427;SDS011;24211;49.980;19.776;2022-10-16T16:32:01;6.13;;;3.47;;
38427;SDS011;24211;49.980;19.776;2022-10-16T16:34:29;6.28;;;3.30;;
38427;SDS011;24211;49.980;19.776;2022-10-16T16:36:56;6.35;;;3.40;;
38427;SDS011;24211;49.980;19.776;2022-10-16T16:48:24;6.72;;;4.07;;
38427;SDS011;24211;49.980;19.776;2022-10-16T16:50:52;10.10;;;6.07;;
38427;SDS011;24211;49.980;19.776;2022-10-16T16:53:20;11.25;;;6.40;;
38427;SDS011;24211;49.980;19.776;2022-10-16T16:55:48;10.32;;;6.07;;
38427;SDS011;24211;49.980;19.776;2022-10-16T16:58:16;8.90;;;5.50;;
38427;SDS011;24211;49.980;19.776;2022-10-16T17:00:46;9.80;;;5.53;;
38427;SDS011;24211;49.980;19.776;2022-10-16T17:03:23;8.93;;;4.75;;
38427;SDS011;24211;49.980;19.776;2022-10-16T17:08:25;8.65;;;4.72;;
38427;SDS011;24211;49.980;19.776;2022-10-16T17:10:53;9.43;;;5.13;;
38427;SDS011;24211;49.980;19.776;2022-10-16T17:13:22;8.43;;;4.72;;
38427;SDS011;24211;49.980;19.776;2022-10-16T17:15:51;8.23;;;4.88;;
38427;SDS011;24211;49.980;19.776;2022-10-16T17:18:21;9.57;;;5.05;;
38427;SDS011;24211;49.980;19.776;2022-10-16T17:20:50;8.88;;;4.80;;
38427;SDS011;24211;49.980;19.776;2022-10-16T17:23:18;9.05;;;5.00;;
38427;SDS011;24211;49.980;19.776;2022-10-16T17:25:46;9.13;;;4.60;;
38427;SDS011;24211;49.980;19.776;2022-10-16T17:28:13;8.18;;;4.75;;
38427;SDS011;24211;49.980;19.776;2022-10-16T17:30:41;10.25;;;5.75;;
38427;SDS011;24211;49.980;19.776;2022-10-16T17:33:10;9.90;;;5.38;;
38427;SDS011;24211;49.980;19.776;2022-10-16T17:35:44;11.33;;;5.80;;
38427;SDS011;24211;49.980;19.776;2022-10-16T17:38:13;10.15;;;5.57;;
38427;SDS011;24211;49.980;19.776;2022-10-16T17:40:43;9.45;;;5.15;;
38427;SDS011;24211;49.980;19.776;2022-10-16T17:43:10;10.27;;;5.40;;
38427;SDS011;24211;49.980;19.776;2022-10-16T17:45:38;9.95;;;5.55;;
38427;SDS011;24211;49.980;19.776;2022-10-16T17:48:05;9.50;;;5.65;;
38427;SDS011;24211;49.980;19.776;2022-10-16T17:50:32;11.63;;;5.65;;
38427;SDS011;24211;49.980;19.776;2022-10-16T17:53:00;11.95;;;6.10;;
38427;SDS011;24211;49.980;19.776;2022-10-16T17:55:27;12.13;;;5.88;;
38427;SDS011;24211;49.980;19.776;2022-10-16T17:57:54;10.63;;;5.93;;
38427;SDS011;24211;49.980;19.776;2022-10-16T18:00:23;11.05;;;5.85;;
38427;SDS011;24211;49.980;19.776;2022-10-16T18:02:51;9.43;;;5.60;;
38427;SDS011;24211;49.980;19.776;2022-10-16T18:05:19;10.00;;;5.25;;
38427;SDS011;24211;49.980;19.776;2022-10-16T18:07:46;10.43;;;5.57;;
38427;SDS011;24211;49.980;19.776;2022-10-16T18:10:14;10.32;;;5.50;;
38427;SDS011;24211;49.980;19.776;2022-10-16T18:12:46;10.13;;;5.57;;
38427;SDS011;24211;49.980;19.776;2022-10-16T18:15:13;10.25;;;5.72;;
38427;SDS011;24211;49.980;19.776;2022-10-16T18:17:42;12.05;;;5.80;;
38427;SDS011;24211;49.980;19.776;2022-10-16T18:20:09;10.10;;;5.72;;
38427;SDS011;24211;49.980;19.776;2022-10-16T18:22:38;10.68;;;6.20;;
38427;SDS011;24211;49.980;19.776;2022-10-16T18:25:05;10.90;;;6.00;;
38427;SDS011;24211;49.980;19.776;2022-10-16T18:27:34;10.20;;;5.90;;
38427;SDS011;24211;49.980;19.776;2022-10-16T18:30:04;10.60;;;5.60;;
38427;SDS011;24211;49.980;19.776;2022-10-16T18:32:33;12.20;;;5.85;;
38427;SDS011;24211;49.980;19.776;2022-10-16T18:35:04;10.40;;;5.72;;
38427;SDS011;24211;49.980;19.776;2022-10-16T18:37:36;10.52;;;5.78;;
38427;SDS011;24211;49.980;19.776;2022-10-16T18:42:57;9.30;;;5.43;;
38427;SDS011;24211;49.980;19.776;2022-10-16T18:45:32;10.82;;;5.90;;
38427;SDS011;24211;49.980;19.776;2022-10-16T18:48:02;10.13;;;5.55;;
38427;SDS011;24211;49.980;19.776;2022-10-16T18:50:33;9.90;;;5.60;;
38427;SDS011;24211;49.980;19.776;2022-10-16T18:53:03;10.70;;;5.72;;
38427;SDS011;24211;49.980;19.776;2022-10-16T18:55:34;11.70;;;5.95;;
38427;SDS011;24211;49.980;19.776;2022-10-16T18:58:04;9.43;;;5.55;;
38427;SDS011;24211;49.980;19.776;2022-10-16T19:00:33;9.93;;;5.38;;
38427;SDS011;24211;49.980;19.776;2022-10-16T19:03:12;10.13;;;5.70;;
38427;SDS011;24211;49.980;19.776;2022-10-16T19:05:41;12.18;;;5.53;;
38427;SDS011;24211;49.980;19.776;2022-10-16T19:08:12;10.75;;;5.85;;
38427;SDS011;24211;49.980;19.776;2022-10-16T19:10:44;11.68;;;5.63;;
38427;SDS011;24211;49.980;19.776;2022-10-16T19:13:13;11.93;;;6.32;;
38427;SDS011;24211;49.980;19.776;2022-10-16T19:15:41;9.43;;;5.60;;
38427;SDS011;24211;49.980;19.776;2022-10-16T19:18:30;10.55;;;5.40;;
